createdAt,value
2023-05-23T00:02:19.371Z,13.57
2023-05-23T00:04:46.049Z,13.48
2023-05-23T00:07:12.771Z,13.37
2023-05-23T00:09:39.407Z,13.27
2023-05-23T00:12:07.215Z,13.03
2023-05-23T00:14:35.572Z,12.97
2023-05-23T00:17:02.495Z,12.93
2023-05-23T00:19:29.294Z,12.87
2023-05-23T00:21:58.902Z,12.89
2023-05-23T00:24:25.891Z,12.79
2023-05-23T00:26:52.768Z,12.63
2023-05-23T00:29:19.773Z,12.58
2023-05-23T00:31:47.355Z,12.63
2023-05-23T00:34:20.616Z,12.68
2023-05-23T00:36:50.551Z,12.55
2023-05-23T00:39:20.265Z,12.54
2023-05-23T00:41:52.233Z,12.41
2023-05-23T00:44:20.421Z,12.38
2023-05-23T00:46:54.605Z,12.35
2023-05-23T00:49:22.124Z,12.40
2023-05-23T00:51:52.302Z,12.38
2023-05-23T00:54:24.186Z,12.27
2023-05-23T00:56:50.896Z,12.11
2023-05-23T00:59:18.199Z,12.07
2023-05-23T01:01:47.469Z,12.01
2023-05-23T01:04:16.805Z,11.94
2023-05-23T01:06:47.156Z,11.88
2023-05-23T01:09:16.330Z,11.79
2023-05-23T01:12:19.720Z,11.85
2023-05-23T01:15:09.995Z,11.76
2023-05-23T01:17:55.090Z,11.65
2023-05-23T01:20:26.578Z,11.57
2023-05-23T01:23:01.892Z,11.52
2023-05-23T01:25:31.455Z,11.46
2023-05-23T01:28:02.132Z,11.40
2023-05-23T01:30:32.483Z,11.28
2023-05-23T01:33:00.664Z,11.19
2023-05-23T01:35:28.246Z,11.13
2023-05-23T01:37:55.915Z,11.06
2023-05-23T01:40:23.759Z,11.06
2023-05-23T01:42:51.256Z,11.04
2023-05-23T01:45:18.651Z,11.03
2023-05-23T01:47:49.550Z,11.05
2023-05-23T01:50:17.414Z,10.94
2023-05-23T01:52:44.938Z,10.87
2023-05-23T01:55:14.362Z,10.88
2023-05-23T01:57:43.415Z,10.92
2023-05-23T02:00:12.396Z,10.93
2023-05-23T02:02:39.248Z,10.84
2023-05-23T02:05:06.385Z,10.78
2023-05-23T02:07:33.211Z,10.73
2023-05-23T02:09:59.964Z,10.71
2023-05-23T02:12:26.733Z,10.67
2023-05-23T02:14:55.035Z,10.56
2023-05-23T02:17:24.348Z,10.51
2023-05-23T02:19:53.126Z,10.50
2023-05-23T02:22:24.763Z,10.51
2023-05-23T02:24:52.115Z,10.51
2023-05-23T02:27:19.619Z,10.51
2023-05-23T02:29:46.341Z,10.46
2023-05-23T02:32:13.119Z,10.38
2023-05-23T02:34:40.534Z,10.37
2023-05-23T02:37:07.448Z,10.36
2023-05-23T02:39:36.629Z,10.35
2023-05-23T02:42:04.803Z,10.36
2023-05-23T02:44:31.710Z,10.37
2023-05-23T02:46:58.374Z,10.38
2023-05-23T02:49:25.092Z,10.39
2023-05-23T02:51:51.978Z,10.44
2023-05-23T02:54:20.608Z,10.45
2023-05-23T02:56:48.530Z,10.46
2023-05-23T02:59:15.172Z,10.53
2023-05-23T03:01:41.886Z,10.58
2023-05-23T03:04:08.546Z,10.69
2023-05-23T03:06:37.027Z,10.80
2023-05-23T03:09:03.963Z,10.87
2023-05-23T03:11:30.700Z,10.89
2023-05-23T03:13:57.373Z,10.96
2023-05-23T03:16:24.711Z,11.00
2023-05-23T03:18:51.426Z,11.04
2023-05-23T03:21:18.568Z,11.12
2023-05-23T03:23:45.278Z,11.16
2023-05-23T03:26:12.059Z,11.18
2023-05-23T03:28:38.739Z,11.23
2023-05-23T03:31:05.444Z,11.30
2023-05-23T03:33:32.160Z,11.37
2023-05-23T03:35:58.919Z,11.45
2023-05-23T03:38:28.008Z,11.51
2023-05-23T03:40:54.670Z,11.62
2023-05-23T03:43:21.366Z,11.71
2023-05-23T03:45:48.060Z,11.80
2023-05-23T03:48:14.876Z,11.88
2023-05-23T03:50:41.591Z,11.96
2023-05-23T03:53:08.315Z,12.08
2023-05-23T03:55:35.036Z,12.21
2023-05-23T03:58:01.824Z,12.30
2023-05-23T04:00:29.224Z,12.36
2023-05-23T04:02:56.005Z,12.44
2023-05-23T04:05:22.982Z,12.55
2023-05-23T04:07:53.759Z,12.66
2023-05-23T04:10:20.497Z,12.72
2023-05-23T04:12:47.923Z,12.77
2023-05-23T04:15:14.678Z,12.75
2023-05-23T04:17:41.477Z,12.83
2023-05-23T04:20:09.813Z,12.92
2023-05-23T04:22:38.788Z,12.95
2023-05-23T04:25:06.515Z,13.01
2023-05-23T04:27:33.181Z,13.05
2023-05-23T04:30:00.631Z,13.08
2023-05-23T04:32:27.745Z,13.10
2023-05-23T04:34:54.560Z,13.13
2023-05-23T04:37:28.030Z,13.16
2023-05-23T04:39:54.779Z,13.22
2023-05-23T04:42:24.683Z,13.22
2023-05-23T04:44:52.868Z,13.23
2023-05-23T04:47:19.669Z,13.26
2023-05-23T04:49:46.338Z,13.32
2023-05-23T04:52:13.482Z,13.42
2023-05-23T04:54:44.705Z,13.48
2023-05-23T04:57:12.471Z,13.53
2023-05-23T04:59:42.021Z,13.61
2023-05-23T05:02:09.643Z,13.65
2023-05-23T05:04:36.514Z,13.70
2023-05-23T05:07:04.579Z,13.76
2023-05-23T05:09:34.298Z,13.84
2023-05-23T05:12:02.812Z,13.91
2023-05-23T05:14:29.528Z,13.98
2023-05-23T05:16:57.865Z,14.03
2023-05-23T05:19:24.915Z,14.08
2023-05-23T05:21:52.500Z,14.16
2023-05-23T05:24:21.136Z,14.13
2023-05-23T05:26:48.400Z,14.19
2023-05-23T05:29:17.919Z,14.24
2023-05-23T05:31:45.388Z,14.29
2023-05-23T05:34:12.779Z,14.33
2023-05-23T05:36:45.885Z,14.42
2023-05-23T05:39:13.869Z,14.47
2023-05-23T05:41:41.177Z,14.52
2023-05-23T05:44:11.316Z,14.58
2023-05-23T05:46:38.007Z,14.65
2023-05-23T05:49:04.778Z,14.63
2023-05-23T05:51:31.695Z,14.67
2023-05-23T05:53:58.454Z,14.67
2023-05-23T05:56:25.129Z,14.76
2023-05-23T05:58:52.641Z,14.68
2023-05-23T06:01:19.387Z,14.66
2023-05-23T06:03:46.247Z,14.64
2023-05-23T06:06:13.191Z,14.66
2023-05-23T06:08:39.907Z,14.66
2023-05-23T06:11:08.304Z,14.67
2023-05-23T06:13:35.022Z,14.67
2023-05-23T06:16:02.060Z,14.68
2023-05-23T06:18:28.745Z,14.72
2023-05-23T06:20:56.206Z,14.76
2023-05-23T06:23:22.928Z,14.78
2023-05-23T06:25:50.614Z,14.86
2023-05-23T06:28:18.155Z,14.93
2023-05-23T06:30:44.795Z,15.00
2023-05-23T06:33:14.081Z,15.06
2023-05-23T06:35:40.782Z,15.11
2023-05-23T06:38:09.410Z,15.18
2023-05-23T06:40:36.065Z,15.25
2023-05-23T06:43:02.722Z,15.25
2023-05-23T06:45:29.461Z,15.20
2023-05-23T06:47:56.300Z,15.25
2023-05-23T06:50:23.146Z,15.28
2023-05-23T06:52:50.246Z,15.28
2023-05-23T06:55:19.408Z,15.32
2023-05-23T06:57:47.342Z,15.33
2023-05-23T07:00:17.722Z,15.37
2023-05-23T07:02:45.878Z,15.48
2023-05-23T07:05:13.146Z,15.52
2023-05-23T07:07:39.903Z,15.53
2023-05-23T07:10:07.381Z,15.54
2023-05-23T07:12:34.976Z,15.60
2023-05-23T07:15:01.885Z,15.57
2023-05-23T07:17:30.460Z,15.61
2023-05-23T07:19:57.165Z,15.52
2023-05-23T07:22:23.979Z,15.54
2023-05-23T07:24:50.820Z,15.51
2023-05-23T07:27:17.601Z,15.50
2023-05-23T07:29:44.367Z,15.57
2023-05-23T07:32:11.044Z,15.58
2023-05-23T07:34:39.488Z,15.59
2023-05-23T07:37:06.347Z,15.63
2023-05-23T07:39:34.936Z,15.61
2023-05-23T07:42:01.739Z,15.59
2023-05-23T07:44:28.807Z,15.63
2023-05-23T07:46:55.898Z,15.68
2023-05-23T07:49:22.851Z,15.74
2023-05-23T07:51:49.540Z,15.81
2023-05-23T07:54:16.748Z,15.89
2023-05-23T07:56:43.817Z,15.94
2023-05-23T07:59:11.143Z,15.95
2023-05-23T08:01:37.874Z,15.97
2023-05-23T08:04:04.656Z,16.03
2023-05-23T08:06:32.044Z,16.07
2023-05-23T08:08:58.735Z,16.11
2023-05-23T08:11:25.459Z,16.06
2023-05-23T08:13:52.116Z,16.02
2023-05-23T08:16:19.070Z,16.05
2023-05-23T08:18:46.046Z,16.08
2023-05-23T08:21:12.793Z,16.12
2023-05-23T08:23:41.200Z,16.10
2023-05-23T08:26:07.962Z,16.02
2023-05-23T08:28:34.874Z,16.08
2023-05-23T08:31:01.666Z,16.14
2023-05-23T08:33:28.361Z,16.24
2023-05-23T08:35:57.227Z,16.24
2023-05-23T08:38:24.169Z,16.30
2023-05-23T08:40:56.282Z,16.33
2023-05-23T08:43:23.447Z,16.31
2023-05-23T08:45:52.327Z,16.25
2023-05-23T08:48:20.241Z,16.27
2023-05-23T08:50:49.204Z,16.32
2023-05-23T08:53:20.603Z,16.29
2023-05-23T08:55:55.822Z,16.27
2023-05-23T08:58:29.166Z,16.22
2023-05-23T09:00:56.675Z,16.31
2023-05-23T09:03:26.934Z,16.33
2023-05-23T09:05:56.777Z,16.41
2023-05-23T09:08:27.362Z,16.53
2023-05-23T09:10:54.670Z,16.56
2023-05-23T09:13:21.551Z,16.67
2023-05-23T09:16:00.369Z,16.72
2023-05-23T09:18:33.041Z,16.78
2023-05-23T09:20:59.757Z,16.76
2023-05-23T09:23:26.487Z,16.80
2023-05-23T09:25:53.167Z,16.90
2023-05-23T09:28:19.930Z,16.95
2023-05-23T09:30:46.571Z,16.95
2023-05-23T09:33:14.518Z,16.98
2023-05-23T09:35:46.228Z,17.04
2023-05-23T09:38:14.864Z,17.14
2023-05-23T09:40:45.719Z,17.17
2023-05-23T09:43:12.581Z,17.21
2023-05-23T09:45:39.207Z,17.42
2023-05-23T09:48:12.919Z,17.61
2023-05-23T09:50:40.216Z,17.65
2023-05-23T09:53:07.490Z,17.76
2023-05-23T09:55:34.219Z,17.77
2023-05-23T09:58:02.556Z,17.89
2023-05-23T10:00:30.282Z,18.19
2023-05-23T10:03:08.378Z,18.38
2023-05-23T10:05:42.067Z,18.32
2023-05-23T10:08:14.210Z,18.27
2023-05-23T10:11:18.782Z,18.33
2023-05-23T10:13:47.354Z,18.32
2023-05-23T10:16:27.428Z,18.40
2023-05-23T10:18:59.530Z,18.52
2023-05-23T10:21:40.808Z,18.62
2023-05-23T10:24:08.114Z,18.71
2023-05-23T10:26:35.820Z,18.83
2023-05-23T10:29:03.310Z,18.96
2023-05-23T10:31:31.389Z,19.06
2023-05-23T10:34:35.773Z,19.10
2023-05-23T10:37:04.265Z,19.14
2023-05-23T10:39:57.471Z,19.25
2023-05-23T10:43:00.139Z,19.34
2023-05-23T10:45:26.843Z,19.46
2023-05-23T10:47:54.125Z,19.53
2023-05-23T10:50:33.192Z,19.44
2023-05-23T10:53:03.206Z,19.39
2023-05-23T10:55:34.486Z,19.38
2023-05-23T10:58:20.698Z,19.34
2023-05-23T11:01:02.403Z,19.26
2023-05-23T11:03:36.190Z,19.19
2023-05-23T11:06:06.856Z,19.25
2023-05-23T11:08:48.409Z,19.29
2023-05-23T11:11:15.917Z,19.27
2023-05-23T11:14:08.862Z,19.22
2023-05-23T11:16:43.242Z,19.21
2023-05-23T11:19:19.233Z,19.26
2023-05-23T11:21:47.308Z,19.30
2023-05-23T11:24:13.974Z,19.38
2023-05-23T11:26:40.699Z,19.39
2023-05-23T11:29:10.489Z,19.43
2023-05-23T11:31:40.750Z,19.39
2023-05-23T11:34:07.893Z,19.43
2023-05-23T11:36:35.719Z,19.50
2023-05-23T11:39:04.192Z,19.52
2023-05-23T11:41:31.460Z,19.55
2023-05-23T11:43:59.896Z,19.59
2023-05-23T11:46:27.035Z,19.62
2023-05-23T11:48:55.089Z,19.63
2023-05-23T11:51:22.180Z,19.65
2023-05-23T11:53:49.040Z,19.66
2023-05-23T11:56:16.346Z,19.76
2023-05-23T11:58:45.376Z,19.80
2023-05-23T12:01:13.727Z,19.89
2023-05-23T12:03:53.946Z,19.94
2023-05-23T12:06:23.646Z,20.03
2023-05-23T12:08:51.916Z,20.11
2023-05-23T12:11:19.000Z,20.24
2023-05-23T12:13:46.056Z,20.24
2023-05-23T12:16:14.940Z,20.32
2023-05-23T12:18:43.058Z,20.51
2023-05-23T12:21:10.216Z,20.75
2023-05-23T12:23:37.180Z,20.81
2023-05-23T12:26:07.767Z,20.91
2023-05-23T12:28:43.629Z,20.99
2023-05-23T12:31:18.671Z,21.02
2023-05-23T12:33:48.025Z,21.08
2023-05-23T12:36:22.887Z,21.10
2023-05-23T12:38:49.789Z,21.12
2023-05-23T12:41:22.319Z,21.15
2023-05-23T12:43:55.562Z,21.15
2023-05-23T12:46:26.226Z,21.11
2023-05-23T12:48:55.625Z,21.07
2023-05-23T12:51:22.401Z,21.12
2023-05-23T12:53:49.371Z,20.88
2023-05-23T12:56:16.110Z,20.81
2023-05-23T12:58:43.929Z,20.75
2023-05-23T13:01:13.796Z,20.68
2023-05-23T13:03:40.642Z,20.68
2023-05-23T13:06:07.838Z,20.76
2023-05-23T13:08:34.544Z,20.83
2023-05-23T13:11:01.423Z,20.86
2023-05-23T13:13:28.113Z,20.86
2023-05-23T13:15:54.942Z,20.73
2023-05-23T13:18:21.741Z,20.69
2023-05-23T13:20:48.447Z,20.59
2023-05-23T13:23:15.157Z,20.48
2023-05-23T13:25:42.127Z,20.43
2023-05-23T13:28:09.045Z,20.32
2023-05-23T13:30:35.816Z,20.27
2023-05-23T13:33:03.383Z,20.21
2023-05-23T13:35:30.138Z,20.11
2023-05-23T13:37:56.964Z,19.99
2023-05-23T13:40:24.030Z,19.98
2023-05-23T13:42:51.962Z,19.91
2023-05-23T13:45:19.777Z,19.85
2023-05-23T13:47:47.442Z,19.80
2023-05-23T13:50:14.427Z,19.90
2023-05-23T13:52:45.689Z,20.10
2023-05-23T13:55:14.206Z,20.26
2023-05-23T13:57:44.355Z,20.43
2023-05-23T14:00:11.808Z,20.51
2023-05-23T14:02:38.473Z,20.76
2023-05-23T14:05:07.430Z,20.96
2023-05-23T14:07:34.175Z,21.15
2023-05-23T14:10:00.928Z,21.22
2023-05-23T14:12:27.605Z,21.30
2023-05-23T14:14:54.326Z,21.33
2023-05-23T14:17:21.133Z,21.33
2023-05-23T14:19:48.076Z,21.52
2023-05-23T14:22:15.014Z,21.83
2023-05-23T14:24:41.712Z,22.12
2023-05-23T14:27:10.914Z,22.30
2023-05-23T14:29:38.101Z,22.44
2023-05-23T14:32:05.141Z,22.60
2023-05-23T14:34:32.156Z,22.73
2023-05-23T14:36:58.911Z,22.82
2023-05-23T14:39:25.800Z,22.97
2023-05-23T14:41:52.946Z,23.12
2023-05-23T14:44:19.755Z,23.20
2023-05-23T14:46:50.366Z,23.24
2023-05-23T14:49:20.088Z,23.23
2023-05-23T14:51:50.876Z,23.24
2023-05-23T14:54:18.867Z,23.25
2023-05-23T14:56:45.739Z,23.21
2023-05-23T14:59:13.261Z,23.16
2023-05-23T15:01:41.091Z,23.02
2023-05-23T15:04:11.252Z,22.88
2023-05-23T15:06:39.339Z,22.61
2023-05-23T15:09:07.597Z,22.47
2023-05-23T15:11:38.927Z,22.39
2023-05-23T15:14:06.058Z,22.26
2023-05-23T15:16:35.141Z,22.15
2023-05-23T15:19:04.180Z,22.03
2023-05-23T15:21:32.287Z,21.90
2023-05-23T15:23:59.852Z,21.77
2023-05-23T15:26:27.492Z,21.69
2023-05-23T15:28:54.852Z,21.62
2023-05-23T15:31:21.865Z,21.57
2023-05-23T15:33:50.048Z,21.57
2023-05-23T15:36:16.690Z,21.46
2023-05-23T15:38:45.037Z,21.34
2023-05-23T15:41:12.103Z,21.20
2023-05-23T15:43:38.917Z,21.26
2023-05-23T15:46:07.119Z,21.34
2023-05-23T15:48:34.039Z,21.37
2023-05-23T15:51:00.745Z,21.40
2023-05-23T15:53:27.466Z,21.31
2023-05-23T15:55:54.390Z,21.35
2023-05-23T15:58:21.525Z,21.43
2023-05-23T16:00:48.189Z,21.56
2023-05-23T16:03:15.028Z,21.61
2023-05-23T16:05:42.121Z,21.69
2023-05-23T16:08:09.011Z,21.80
2023-05-23T16:10:35.716Z,21.78
2023-05-23T16:13:03.011Z,21.75
2023-05-23T16:15:29.664Z,21.53
2023-05-23T16:17:56.530Z,21.43
2023-05-23T16:20:23.268Z,21.36
2023-05-23T16:22:51.334Z,21.26
2023-05-23T16:25:19.221Z,21.11
2023-05-23T16:27:45.905Z,21.07
2023-05-23T16:30:12.643Z,20.99
2023-05-23T16:32:39.377Z,20.77
2023-05-23T16:35:06.519Z,20.61
2023-05-23T16:37:34.379Z,20.51
2023-05-23T16:40:01.399Z,20.50
2023-05-23T16:42:29.377Z,20.54
2023-05-23T16:44:56.142Z,20.50
2023-05-23T16:47:24.301Z,20.56
2023-05-23T16:49:50.984Z,20.31
2023-05-23T16:52:19.577Z,19.96
2023-05-23T16:54:46.320Z,19.72
2023-05-23T16:57:13.087Z,19.52
2023-05-23T16:59:41.498Z,19.36
2023-05-23T17:02:12.482Z,19.22
2023-05-23T17:04:39.131Z,19.04
2023-05-23T17:07:09.888Z,18.93
2023-05-23T17:09:36.845Z,18.81
2023-05-23T17:12:04.927Z,18.76
2023-05-23T17:14:32.049Z,18.63
2023-05-23T17:16:58.785Z,18.52
2023-05-23T17:19:25.785Z,18.44
2023-05-23T17:21:53.653Z,18.26
2023-05-23T17:24:20.373Z,18.20
2023-05-23T17:26:48.516Z,18.16
2023-05-23T17:29:17.382Z,18.09
2023-05-23T17:31:44.508Z,17.97
2023-05-23T17:34:12.481Z,17.93
2023-05-23T17:36:39.637Z,17.87
2023-05-23T17:39:07.440Z,17.76
2023-05-23T17:41:34.122Z,17.71
2023-05-23T17:44:01.941Z,17.61
2023-05-23T17:46:28.634Z,17.60
2023-05-23T17:48:55.607Z,17.52
2023-05-23T17:51:24.215Z,17.40
2023-05-23T17:53:53.651Z,17.39
2023-05-23T17:56:23.301Z,17.36
2023-05-23T17:58:51.521Z,17.27
2023-05-23T18:01:18.337Z,17.23
2023-05-23T18:03:45.227Z,17.18
2023-05-23T18:06:13.374Z,17.00
2023-05-23T18:08:42.959Z,16.87
2023-05-23T18:11:09.892Z,16.86
2023-05-23T18:13:37.635Z,16.77
2023-05-23T18:16:04.313Z,16.69
2023-05-23T18:18:31.121Z,16.66
2023-05-23T18:20:57.885Z,16.63
2023-05-23T18:23:24.532Z,16.61
2023-05-23T18:25:51.198Z,16.52
2023-05-23T18:28:17.919Z,16.52
2023-05-23T18:30:44.925Z,16.54
2023-05-23T18:33:11.854Z,16.48
2023-05-23T18:35:38.610Z,16.47
2023-05-23T18:38:05.367Z,16.46
2023-05-23T18:40:32.042Z,16.41
2023-05-23T18:42:58.728Z,16.39
2023-05-23T18:45:25.463Z,16.40
2023-05-23T18:47:52.253Z,16.41
2023-05-23T18:50:20.355Z,16.38
2023-05-23T18:52:48.278Z,16.42
2023-05-23T18:55:17.234Z,16.40
2023-05-23T18:57:44.294Z,16.28
2023-05-23T19:00:12.320Z,16.11
2023-05-23T19:02:44.209Z,16.07
2023-05-23T19:05:12.677Z,16.10
2023-05-23T19:07:39.712Z,16.09
2023-05-23T19:10:08.076Z,16.05
2023-05-23T19:12:36.085Z,16.02
2023-05-23T19:15:03.101Z,15.91
2023-05-23T19:17:31.555Z,15.81
2023-05-23T19:19:58.233Z,15.68
2023-05-23T19:22:25.614Z,15.63
2023-05-23T19:24:53.238Z,15.50
2023-05-23T19:27:19.947Z,15.38
2023-05-23T19:29:46.669Z,15.36
2023-05-23T19:32:13.915Z,15.35
2023-05-23T19:34:40.698Z,15.37
2023-05-23T19:37:07.475Z,15.35
2023-05-23T19:39:34.125Z,15.28
2023-05-23T19:42:02.254Z,15.21
2023-05-23T19:44:28.920Z,15.18
2023-05-23T19:46:56.969Z,15.07
2023-05-23T19:49:24.093Z,15.06
2023-05-23T19:51:50.774Z,15.04
2023-05-23T19:54:17.865Z,15.02
2023-05-23T19:56:45.686Z,14.91
2023-05-23T19:59:13.699Z,14.80
2023-05-23T20:01:40.672Z,14.72
2023-05-23T20:04:07.609Z,14.63
2023-05-23T20:06:34.562Z,14.65
2023-05-23T20:09:01.263Z,14.50
2023-05-23T20:11:29.129Z,14.33
2023-05-23T20:13:55.947Z,14.11
2023-05-23T20:16:23.396Z,14.06
2023-05-23T20:18:50.163Z,13.90
2023-05-23T20:21:16.937Z,13.65
2023-05-23T20:23:45.183Z,13.48
2023-05-23T20:26:12.058Z,13.46
2023-05-23T20:28:38.785Z,13.52
2023-05-23T20:31:05.633Z,13.49
2023-05-23T20:33:35.807Z,13.36
2023-05-23T20:36:02.448Z,13.30
2023-05-23T20:38:30.211Z,13.30
2023-05-23T20:40:58.322Z,13.28
2023-05-23T20:43:25.837Z,13.30
2023-05-23T20:45:52.540Z,13.20
2023-05-23T20:48:19.220Z,13.07
2023-05-23T20:50:46.328Z,12.96
2023-05-23T20:53:14.475Z,12.84
2023-05-23T20:55:42.626Z,12.74
2023-05-23T20:58:11.477Z,12.70
2023-05-23T21:00:38.135Z,12.74
2023-05-23T21:03:04.960Z,12.68
2023-05-23T21:05:31.756Z,12.67
2023-05-23T21:07:58.465Z,12.53
2023-05-23T21:10:25.172Z,12.35
2023-05-23T21:12:53.329Z,12.24
2023-05-23T21:15:20.561Z,12.16
2023-05-23T21:17:47.424Z,11.98
2023-05-23T21:20:14.254Z,11.94
2023-05-23T21:22:41.257Z,11.99
2023-05-23T21:25:08.459Z,12.03
2023-05-23T21:27:35.171Z,12.07
2023-05-23T21:30:03.295Z,12.08
2023-05-23T21:32:30.067Z,12.12
2023-05-23T21:34:57.035Z,12.10
2023-05-23T21:37:24.770Z,12.05
2023-05-23T21:39:52.608Z,11.97
2023-05-23T21:42:20.403Z,11.90
2023-05-23T21:44:48.504Z,11.79
2023-05-23T21:47:16.261Z,11.73
2023-05-23T21:49:44.197Z,11.66
2023-05-23T21:52:10.879Z,11.68
2023-05-23T21:54:37.516Z,11.75
2023-05-23T21:57:04.556Z,11.71
2023-05-23T21:59:31.760Z,11.62
2023-05-23T22:01:58.573Z,11.53
2023-05-23T22:04:25.519Z,11.38
2023-05-23T22:06:52.541Z,11.24
2023-05-23T22:09:19.238Z,11.28
2023-05-23T22:11:46.165Z,11.25
2023-05-23T22:14:14.055Z,11.18
2023-05-23T22:16:40.830Z,11.12
2023-05-23T22:19:10.821Z,11.02
2023-05-23T22:21:37.527Z,10.99
2023-05-23T22:24:05.754Z,11.02
2023-05-23T22:26:32.492Z,11.03
2023-05-23T22:28:59.355Z,11.02
2023-05-23T22:31:26.540Z,11.00
2023-05-23T22:33:53.498Z,10.86
2023-05-23T22:36:23.220Z,10.77
2023-05-23T22:38:50.340Z,10.71
2023-05-23T22:41:17.237Z,10.63
2023-05-23T22:43:44.093Z,10.58
2023-05-23T22:46:11.148Z,10.52
2023-05-23T22:48:39.134Z,10.49
2023-05-23T22:51:07.356Z,10.45
2023-05-23T22:53:35.255Z,10.34
2023-05-23T22:56:03.905Z,10.37
2023-05-23T22:58:31.316Z,10.42
2023-05-23T23:00:58.120Z,10.38
2023-05-23T23:03:24.863Z,10.39
2023-05-23T23:05:51.555Z,10.38
2023-05-23T23:08:19.440Z,10.23
2023-05-23T23:10:47.641Z,10.20
2023-05-23T23:13:14.265Z,10.11
2023-05-23T23:15:42.903Z,10.09
2023-05-23T23:18:10.165Z,10.17
2023-05-23T23:20:37.147Z,10.14
2023-05-23T23:23:03.987Z,10.07
2023-05-23T23:25:31.935Z,10.06
2023-05-23T23:27:59.982Z,9.95
2023-05-23T23:30:26.730Z,9.94
2023-05-23T23:32:53.686Z,9.86
2023-05-23T23:35:21.473Z,9.81
2023-05-23T23:37:48.112Z,9.83
2023-05-23T23:40:16.072Z,9.93
2023-05-23T23:42:43.923Z,9.91
2023-05-23T23:45:11.041Z,9.84
2023-05-23T23:47:39.048Z,9.75
2023-05-23T23:50:08.224Z,9.68
2023-05-23T23:52:38.430Z,9.63
2023-05-23T23:55:05.768Z,9.56
2023-05-23T23:57:34.549Z,9.46
